createdAt,value
2023-03-03T05:47:35.738Z,85.43
2023-03-03T05:50:04.149Z,84.30
2023-03-03T05:52:32.208Z,88.65
2023-03-03T05:55:00.106Z,80.40
2023-03-03T05:57:27.963Z,81.13
2023-03-03T05:59:55.888Z,79.78
2023-03-03T06:02:23.799Z,80.13
2023-03-03T06:04:53.076Z,73.05
2023-03-03T06:07:20.957Z,71.60
2023-03-03T06:09:48.915Z,78.95
2023-03-03T06:12:17.126Z,73.78
2023-03-03T06:14:45.085Z,74.78
2023-03-03T06:17:13.037Z,72.43
2023-03-03T06:19:41.519Z,77.95
2023-03-03T06:22:11.021Z,76.65
2023-03-03T06:24:39.313Z,75.75
2023-03-03T06:27:07.781Z,75.78
2023-03-03T06:29:35.746Z,78.35
2023-03-03T06:32:03.690Z,80.00
2023-03-03T06:34:31.806Z,81.22
2023-03-03T06:36:59.772Z,75.45
2023-03-03T06:39:29.298Z,83.80
2023-03-03T06:41:57.224Z,76.28
2023-03-03T06:44:27.072Z,79.38
2023-03-03T06:46:57.319Z,76.95
2023-03-03T06:49:25.446Z,79.18
2023-03-03T06:51:53.339Z,76.68
2023-03-03T06:54:27.759Z,77.47
2023-03-03T06:57:02.352Z,73.82
2023-03-03T06:59:30.338Z,76.38
2023-03-03T07:01:58.823Z,77.72
2023-03-03T07:04:30.917Z,83.18
2023-03-03T07:07:01.063Z,87.32
2023-03-03T07:09:30.542Z,75.47
2023-03-03T07:12:03.644Z,77.85
2023-03-03T07:14:31.883Z,79.90
2023-03-03T07:17:02.589Z,82.53
2023-03-03T07:19:35.400Z,72.28
2023-03-03T07:22:13.309Z,80.75
2023-03-03T07:24:42.678Z,82.03
2023-03-03T07:27:18.355Z,73.65
2023-03-03T07:29:48.847Z,72.43
2023-03-03T07:32:36.423Z,78.18
2023-03-03T07:35:23.886Z,72.85
2023-03-03T07:37:51.856Z,74.85
2023-03-03T07:40:35.880Z,76.38
2023-03-03T07:43:28.576Z,72.80
2023-03-03T15:03:00.776Z,54.25
2023-03-03T15:05:30.416Z,53.90
2023-03-03T15:08:09.017Z,59.58
2023-03-03T15:10:38.241Z,58.97
2023-03-03T15:13:35.075Z,53.60
2023-03-03T15:16:12.473Z,60.35
2023-03-03T15:19:21.398Z,51.05
2023-03-03T15:22:00.522Z,53.63
2023-03-03T15:24:39.437Z,52.78
2023-03-03T15:27:13.430Z,50.17
2023-03-03T15:29:52.040Z,55.00
2023-03-03T15:32:24.933Z,58.55
2023-03-03T15:35:00.094Z,52.65
2023-03-03T15:37:40.247Z,53.53
2023-03-03T15:40:22.136Z,60.10
2023-03-03T15:42:53.851Z,54.88
2023-03-03T15:45:28.681Z,55.97
2023-03-03T15:48:16.368Z,52.75
2023-03-03T15:50:56.913Z,49.60
2023-03-03T15:53:47.496Z,52.30
2023-03-03T15:56:24.303Z,55.95
2023-03-03T15:59:42.217Z,48.08
2023-03-03T16:02:20.097Z,51.33
2023-03-03T16:04:56.105Z,50.85
2023-03-03T16:07:37.186Z,49.42
2023-03-03T16:10:16.477Z,50.92
2023-03-03T16:12:54.094Z,47.72
2023-03-03T16:15:35.132Z,53.67
2023-03-03T16:18:12.343Z,52.88
2023-03-03T16:20:50.090Z,70.43
2023-03-03T16:23:32.864Z,71.95
2023-03-03T16:26:11.367Z,61.72
2023-03-03T16:28:57.008Z,64.43
2023-03-03T16:31:30.233Z,67.47
2023-03-03T16:34:08.356Z,53.33
2023-03-03T16:36:47.560Z,59.08
2023-03-03T16:39:25.910Z,47.65
2023-03-03T16:42:01.378Z,48.80
2023-03-03T16:44:40.663Z,48.78
2023-03-03T16:47:20.229Z,49.35
2023-03-03T16:49:57.648Z,56.47
2023-03-03T16:52:32.874Z,57.55
2023-03-03T16:55:10.853Z,57.38
2023-03-03T16:57:48.408Z,50.03
2023-03-03T17:00:21.218Z,48.05
2023-03-03T17:03:15.462Z,63.53
2023-03-03T17:05:51.462Z,54.92
2023-03-03T17:08:40.513Z,56.08
2023-03-03T17:11:20.700Z,53.95
2023-03-03T17:14:13.756Z,53.35
2023-03-03T17:16:52.887Z,59.13
2023-03-03T17:19:31.338Z,73.95
2023-03-03T17:22:12.197Z,73.40
2023-03-03T17:24:49.503Z,72.28
2023-03-03T17:27:26.944Z,81.43
2023-03-03T17:30:07.664Z,80.40
2023-03-03T17:32:54.780Z,91.13
2023-03-03T17:35:34.153Z,93.75
2023-03-03T17:38:11.470Z,90.50
2023-03-03T17:40:50.569Z,77.53
2023-03-03T17:43:24.812Z,95.25
2023-03-03T17:45:56.369Z,76.15
2023-03-03T17:48:53.470Z,96.60
2023-03-03T17:51:46.245Z,101.72
2023-03-03T17:54:35.666Z,86.45
2023-03-03T17:57:16.511Z,74.18
2023-03-03T18:00:03.004Z,72.95
2023-03-03T18:03:04.183Z,76.63
2023-03-03T18:05:50.872Z,81.97
2023-03-03T18:08:54.374Z,77.63
2023-03-03T18:11:40.580Z,67.68
2023-03-03T18:14:35.841Z,84.18
2023-03-03T18:17:36.874Z,67.10
2023-03-03T18:20:44.156Z,71.80
2023-03-03T18:23:31.209Z,78.53
2023-03-03T18:26:00.696Z,102.00
2023-03-03T18:28:46.265Z,70.28
2023-03-03T18:31:24.885Z,74.47
2023-03-03T18:34:09.804Z,87.65
2023-03-03T18:36:40.840Z,67.97
2023-03-03T18:39:15.328Z,71.47
2023-03-03T18:42:06.911Z,70.30
2023-03-03T18:44:35.001Z,68.00
2023-03-03T18:47:03.462Z,63.33
2023-03-03T18:49:55.524Z,63.13
2023-03-03T18:52:27.525Z,63.08
2023-03-03T18:55:23.596Z,63.78
2023-03-03T18:58:28.632Z,65.65
2023-03-03T19:01:00.597Z,65.05
2023-03-03T19:03:33.442Z,66.05
2023-03-03T19:06:03.847Z,62.13
2023-03-03T19:08:46.022Z,63.08
2023-03-03T19:11:37.843Z,71.63
2023-03-03T19:14:30.908Z,69.90
2023-03-03T19:17:00.603Z,60.70
2023-03-03T19:19:34.443Z,64.07
2023-03-03T19:22:25.593Z,58.55
2023-03-03T19:25:15.014Z,68.72
2023-03-03T19:27:46.649Z,63.30
2023-03-03T19:30:37.453Z,67.43
2023-03-03T19:33:25.724Z,77.10
2023-03-03T19:36:07.799Z,65.82
2023-03-03T19:38:45.235Z,68.78
2023-03-03T19:41:34.217Z,81.30
2023-03-03T19:44:12.567Z,76.07
2023-03-03T19:46:56.846Z,77.05
2023-03-03T19:49:39.723Z,76.10
2023-03-03T19:52:17.620Z,78.97
2023-03-03T19:54:59.877Z,76.85
2023-03-03T19:57:41.752Z,66.13
2023-03-03T20:00:20.053Z,64.20
2023-03-03T20:02:59.864Z,71.03
2023-03-03T20:05:37.574Z,72.32
2023-03-03T20:08:15.058Z,61.95
2023-03-03T20:10:51.516Z,64.65
2023-03-03T20:13:34.627Z,66.28
2023-03-03T20:16:14.371Z,74.75
2023-03-03T20:19:01.557Z,71.50
2023-03-03T20:21:35.367Z,71.60
2023-03-03T20:24:36.679Z,68.60
2023-03-03T20:27:10.867Z,65.10
2023-03-03T20:29:54.285Z,66.40
2023-03-03T20:32:32.631Z,67.28
2023-03-03T20:35:11.939Z,65.97
2023-03-03T20:37:50.722Z,63.47
2023-03-03T20:40:30.918Z,70.63
2023-03-03T20:43:11.471Z,74.72
2023-03-03T20:45:49.792Z,67.20
2023-03-03T20:48:32.328Z,68.07
2023-03-03T20:51:06.593Z,72.78
2023-03-03T20:53:45.477Z,69.03
2023-03-03T20:56:17.976Z,64.68
2023-03-03T20:58:59.495Z,70.53
